createdAt,value
2022-12-25T00:00:51.165Z,92.55
2022-12-25T00:01:51.033Z,92.55
2022-12-25T00:02:51.192Z,92.34
2022-12-25T00:03:51.424Z,92.44
2022-12-25T00:04:50.799Z,92.44
2022-12-25T00:05:50.971Z,92.24
2022-12-25T00:06:50.793Z,92.44
2022-12-25T00:07:50.983Z,92.65
2022-12-25T00:08:51.063Z,92.55
2022-12-25T00:09:51.122Z,92.44
2022-12-25T00:10:50.863Z,92.55
2022-12-25T00:11:51.012Z,92.44
2022-12-25T00:12:50.802Z,92.44
2022-12-25T00:13:51.046Z,92.30
2022-12-25T00:14:50.965Z,92.30
2022-12-25T00:15:51.005Z,92.10
2022-12-25T00:16:50.886Z,91.99
2022-12-25T00:17:50.902Z,91.89
2022-12-25T00:18:50.914Z,91.99
2022-12-25T00:19:50.643Z,91.89
2022-12-25T00:20:50.823Z,91.89
2022-12-25T00:21:50.661Z,92.14
2022-12-25T00:22:50.816Z,92.34
2022-12-25T00:23:50.783Z,92.30
2022-12-25T00:24:50.846Z,92.44
2022-12-25T00:25:50.641Z,92.34
2022-12-25T00:26:50.838Z,92.61
2022-12-25T00:27:50.804Z,92.30
2022-12-25T00:28:50.751Z,92.44
2022-12-25T00:29:50.764Z,92.55
2022-12-25T00:30:50.792Z,92.65
2022-12-25T00:31:50.822Z,92.71
2022-12-25T00:32:50.751Z,92.71
2022-12-25T00:33:50.701Z,92.50
2022-12-25T00:34:50.581Z,92.61
2022-12-25T00:35:50.721Z,92.30
2022-12-25T00:36:50.473Z,92.34
2022-12-25T00:37:50.750Z,92.61
2022-12-25T00:38:50.544Z,92.50
2022-12-25T00:39:50.779Z,92.50
2022-12-25T00:40:50.623Z,92.24
2022-12-25T00:41:50.722Z,93.16
2022-12-25T00:42:50.512Z,93.37
2022-12-25T00:43:50.632Z,92.71
2022-12-25T00:44:50.538Z,91.99
2022-12-25T00:45:50.756Z,92.44
2022-12-25T00:46:50.695Z,92.86
2022-12-25T00:47:50.579Z,92.76
2022-12-25T00:48:49.764Z,92.86
2022-12-25T00:49:50.602Z,93.11
2022-12-25T00:50:50.562Z,93.16
2022-12-25T00:51:50.421Z,93.16
2022-12-25T00:52:50.561Z,92.69
2022-12-25T00:53:50.442Z,93.01
2022-12-25T00:54:50.512Z,93.01
2022-12-25T00:55:50.491Z,93.01
2022-12-25T00:56:51.235Z,93.21
2022-12-25T00:57:49.683Z,93.11
2022-12-25T00:58:50.553Z,92.90
2022-12-25T00:59:50.462Z,92.90
2022-12-25T01:00:50.436Z,92.90
2022-12-25T01:01:49.886Z,92.59
2022-12-25T01:02:51.076Z,92.90
2022-12-25T01:03:50.222Z,93.05
2022-12-25T01:04:49.630Z,93.56
2022-12-25T01:05:51.394Z,93.77
2022-12-25T01:06:50.356Z,94.49
2022-12-25T01:07:50.510Z,93.98
2022-12-25T01:08:50.200Z,93.73
2022-12-25T01:09:50.340Z,93.52
2022-12-25T01:10:50.232Z,93.31
2022-12-25T01:11:50.398Z,93.21
2022-12-25T01:12:50.292Z,93.31
2022-12-25T01:13:50.351Z,93.31
2022-12-25T01:14:50.223Z,93.31
2022-12-25T01:15:49.547Z,93.41
2022-12-25T01:16:51.068Z,93.31
2022-12-25T01:17:50.324Z,93.11
2022-12-25T01:18:50.285Z,92.90
2022-12-25T01:19:50.283Z,92.90
2022-12-25T01:20:50.214Z,92.90
2022-12-25T01:21:50.019Z,92.80
2022-12-25T01:22:50.305Z,92.80
2022-12-25T01:23:50.012Z,92.90
2022-12-25T01:24:50.240Z,92.76
2022-12-25T01:25:50.071Z,92.65
2022-12-25T01:26:50.261Z,92.59
2022-12-25T01:27:50.019Z,92.80
2022-12-25T01:28:50.120Z,93.05
2022-12-25T01:29:50.154Z,93.35
2022-12-25T01:30:50.219Z,93.66
2022-12-25T01:31:49.412Z,93.93
2022-12-25T01:32:50.101Z,93.83
2022-12-25T01:33:50.060Z,93.62
2022-12-25T01:34:55.600Z,93.41
2022-12-25T01:35:50.079Z,93.93
2022-12-25T01:36:49.263Z,93.73
2022-12-25T01:37:50.103Z,93.41
2022-12-25T01:38:49.875Z,93.21
2022-12-25T01:39:50.081Z,93.06
2022-12-25T01:40:49.849Z,92.76
2022-12-25T01:41:49.297Z,92.96
2022-12-25T01:42:49.830Z,92.59
2022-12-25T01:43:49.220Z,92.90
2022-12-25T01:44:49.820Z,92.96
2022-12-25T01:45:50.061Z,92.76
2022-12-25T01:46:49.966Z,92.86
2022-12-25T01:47:49.952Z,92.76
2022-12-25T01:48:49.864Z,92.65
2022-12-25T01:49:50.032Z,92.34
2022-12-25T01:50:49.953Z,92.24
2022-12-25T01:51:49.120Z,92.44
2022-12-25T01:52:49.994Z,92.34
2022-12-25T01:53:49.841Z,91.93
2022-12-25T01:54:49.071Z,92.08
2022-12-25T01:55:49.761Z,92.59
2022-12-25T01:56:49.839Z,92.69
2022-12-25T01:57:49.913Z,92.69
2022-12-25T01:58:49.931Z,92.49
2022-12-25T01:59:49.900Z,92.80
2022-12-25T02:00:49.814Z,92.55
2022-12-25T02:01:50.036Z,92.38
2022-12-25T02:02:50.055Z,92.69
2022-12-25T02:03:49.736Z,92.80
2022-12-25T02:04:49.897Z,92.55
2022-12-25T02:05:49.744Z,92.65
2022-12-25T02:06:49.655Z,92.44
2022-12-25T02:07:49.850Z,92.55
2022-12-25T02:08:49.732Z,92.49
2022-12-25T02:09:49.751Z,92.18
2022-12-25T02:10:49.654Z,92.59
2022-12-25T02:11:49.717Z,92.59
2022-12-25T02:12:48.874Z,93.11
2022-12-25T02:13:49.776Z,93.31
2022-12-25T02:14:49.537Z,92.96
2022-12-25T02:15:49.732Z,92.96
2022-12-25T02:16:57.753Z,92.65
2022-12-25T02:17:49.618Z,92.38
2022-12-25T02:18:49.814Z,92.86
2022-12-25T02:19:49.692Z,92.65
2022-12-25T02:20:49.671Z,92.86
2022-12-25T02:21:49.741Z,92.44
2022-12-25T02:22:49.555Z,92.10
2022-12-25T02:23:48.790Z,91.17
2022-12-25T02:24:50.796Z,91.17
2022-12-25T02:25:50.511Z,90.86
2022-12-25T02:26:49.558Z,90.66
2022-12-25T02:27:49.431Z,91.06
2022-12-25T02:28:49.525Z,90.45
2022-12-25T02:29:49.431Z,90.55
2022-12-25T02:30:49.538Z,90.86
2022-12-25T02:31:49.587Z,90.96
2022-12-25T02:32:49.607Z,90.66
2022-12-25T02:33:49.413Z,91.27
2022-12-25T02:34:49.514Z,91.38
2022-12-25T02:35:49.632Z,91.06
2022-12-25T02:36:49.558Z,91.27
2022-12-25T02:37:49.380Z,91.42
2022-12-25T02:38:49.222Z,91.11
2022-12-25T02:39:48.621Z,91.83
2022-12-25T02:40:48.587Z,91.62
2022-12-25T02:41:49.962Z,91.42
2022-12-25T02:42:49.248Z,91.42
2022-12-25T02:43:49.420Z,91.72
2022-12-25T02:44:49.203Z,92.03
2022-12-25T02:45:49.393Z,91.93
2022-12-25T02:46:49.282Z,91.83
2022-12-25T02:47:49.412Z,91.93
2022-12-25T02:48:49.263Z,91.83
2022-12-25T02:49:49.362Z,91.42
2022-12-25T02:50:49.262Z,91.42
2022-12-25T02:51:49.302Z,91.62
2022-12-25T02:52:49.204Z,91.83
2022-12-25T02:53:49.141Z,91.83
2022-12-25T02:54:48.451Z,91.21
2022-12-25T02:55:49.105Z,91.00
2022-12-25T02:56:49.602Z,91.21
2022-12-25T02:57:49.081Z,91.52
2022-12-25T02:58:49.338Z,91.83
2022-12-25T02:59:49.276Z,92.03
2022-12-25T03:00:49.192Z,92.03
2022-12-25T03:01:49.151Z,92.14
2022-12-25T03:02:49.192Z,92.44
2022-12-25T03:03:49.326Z,92.44
2022-12-25T03:04:49.695Z,92.03
2022-12-25T03:05:49.271Z,92.34
2022-12-25T03:06:48.342Z,92.34
2022-12-25T03:07:49.201Z,92.55
2022-12-25T03:08:49.007Z,92.34
2022-12-25T03:09:49.232Z,91.62
2022-12-25T03:10:48.921Z,92.14
2022-12-25T03:11:49.063Z,92.03
2022-12-25T03:12:49.020Z,92.14
2022-12-25T03:13:48.282Z,91.93
2022-12-25T03:14:50.296Z,91.93
2022-12-25T03:15:49.640Z,92.03
2022-12-25T03:16:48.315Z,91.93
2022-12-25T03:17:50.034Z,91.31
2022-12-25T03:18:48.922Z,91.52
2022-12-25T03:19:48.973Z,91.83
2022-12-25T03:20:48.961Z,91.62
2022-12-25T03:21:49.034Z,91.72
2022-12-25T03:22:48.916Z,91.52
2022-12-25T03:23:48.742Z,91.62
2022-12-25T03:24:48.928Z,91.72
2022-12-25T03:25:48.109Z,91.83
2022-12-25T03:26:49.103Z,92.03
2022-12-25T03:27:48.745Z,92.14
2022-12-25T03:28:48.922Z,92.44
2022-12-25T03:29:49.774Z,92.03
2022-12-25T03:30:48.172Z,92.03
2022-12-25T03:31:48.823Z,92.14
2022-12-25T03:32:48.892Z,91.93
2022-12-25T03:33:48.712Z,92.29
2022-12-25T03:34:49.079Z,92.80
2022-12-25T03:35:48.032Z,92.76
2022-12-25T03:36:49.480Z,92.86
2022-12-25T03:37:48.663Z,92.86
2022-12-25T03:38:48.018Z,92.76
2022-12-25T03:39:49.755Z,92.76
2022-12-25T03:40:48.814Z,92.55
2022-12-25T03:41:48.023Z,92.65
2022-12-25T03:42:48.703Z,92.55
2022-12-25T03:43:47.915Z,92.55
2022-12-25T03:44:47.962Z,92.44
2022-12-25T03:45:49.818Z,92.34
2022-12-25T03:46:49.133Z,92.14
2022-12-25T03:47:47.923Z,92.14
2022-12-25T03:48:49.505Z,92.65
2022-12-25T03:49:48.544Z,92.96
2022-12-25T03:50:48.625Z,93.37
2022-12-25T03:51:48.629Z,93.48
2022-12-25T03:52:48.663Z,93.79
2022-12-25T03:53:48.602Z,94.09
2022-12-25T03:54:48.604Z,94.20
2022-12-25T03:55:47.803Z,94.51
2022-12-25T03:56:48.622Z,94.09
2022-12-25T03:57:48.491Z,94.40
2022-12-25T03:58:48.554Z,94.20
2022-12-25T03:59:48.572Z,94.71
2022-12-25T04:00:48.594Z,94.20
2022-12-25T04:01:48.543Z,94.24
2022-12-25T04:02:48.775Z,94.65
2022-12-25T04:03:48.569Z,95.06
2022-12-25T04:04:48.565Z,95.58
2022-12-25T04:05:48.427Z,95.48
2022-12-25T04:06:48.482Z,95.12
2022-12-25T04:07:48.426Z,95.12
2022-12-25T04:08:48.634Z,95.12
2022-12-25T04:09:48.537Z,95.12
2022-12-25T04:10:48.264Z,95.23
2022-12-25T04:11:48.422Z,95.02
2022-12-25T04:12:48.307Z,94.92
2022-12-25T04:13:47.633Z,95.23
2022-12-25T04:14:48.915Z,95.02
2022-12-25T04:15:48.387Z,95.02
2022-12-25T04:16:48.333Z,95.02
2022-12-25T04:17:48.414Z,94.71
2022-12-25T04:18:48.266Z,94.20
2022-12-25T04:19:48.414Z,93.93
2022-12-25T04:20:48.407Z,94.34
2022-12-25T04:21:48.526Z,94.20
2022-12-25T04:22:48.434Z,94.40
2022-12-25T04:23:48.545Z,94.51
2022-12-25T04:24:48.313Z,94.20
2022-12-25T04:25:48.207Z,93.62
2022-12-25T04:26:48.402Z,93.83
2022-12-25T04:27:48.314Z,93.88
2022-12-25T04:28:48.380Z,93.62
2022-12-25T04:29:47.445Z,93.52
2022-12-25T04:30:48.408Z,93.93
2022-12-25T04:31:48.322Z,93.73
2022-12-25T04:32:48.264Z,94.24
2022-12-25T04:33:48.104Z,94.03
2022-12-25T04:34:48.385Z,94.24
2022-12-25T04:35:48.217Z,94.45
2022-12-25T04:36:48.268Z,94.34
2022-12-25T04:37:48.248Z,94.09
2022-12-25T04:38:48.255Z,94.30
2022-12-25T04:39:48.183Z,94.30
2022-12-25T04:40:48.086Z,94.09
2022-12-25T04:41:48.215Z,93.52
2022-12-25T04:42:47.992Z,93.73
2022-12-25T04:43:48.283Z,93.93
2022-12-25T04:44:47.980Z,94.34
2022-12-25T04:45:48.176Z,94.03
2022-12-25T04:46:48.027Z,94.03
2022-12-25T04:47:48.074Z,94.13
2022-12-25T04:48:48.145Z,93.52
2022-12-25T04:49:48.021Z,93.73
2022-12-25T04:50:48.186Z,93.73
2022-12-25T04:51:48.059Z,93.83
2022-12-25T04:52:47.968Z,94.13
2022-12-25T04:53:48.094Z,93.93
2022-12-25T04:54:47.936Z,93.83
2022-12-25T04:55:47.173Z,94.03
2022-12-25T04:56:48.095Z,93.93
2022-12-25T04:57:47.741Z,94.03
2022-12-25T04:58:48.699Z,94.24
2022-12-25T04:59:47.807Z,94.13
2022-12-25T05:00:48.023Z,94.13
2022-12-25T05:01:48.019Z,94.55
2022-12-25T05:02:48.299Z,94.96
2022-12-25T05:03:47.940Z,94.85
2022-12-25T05:04:48.135Z,94.76
2022-12-25T05:05:47.956Z,94.13
2022-12-25T05:06:48.175Z,93.93
2022-12-25T05:07:47.046Z,94.13
2022-12-25T05:08:48.485Z,94.24
2022-12-25T05:09:47.699Z,94.24
2022-12-25T05:10:47.151Z,94.03
2022-12-25T05:11:48.613Z,93.52
2022-12-25T05:12:47.796Z,93.56
2022-12-25T05:13:46.998Z,93.35
2022-12-25T05:14:47.645Z,93.15
2022-12-25T05:15:47.853Z,93.35
2022-12-25T05:16:47.714Z,93.56
2022-12-25T05:17:48.784Z,94.02
2022-12-25T05:18:47.765Z,94.23
2022-12-25T05:19:46.917Z,94.43
2022-12-25T05:20:47.606Z,94.64
2022-12-25T05:21:47.774Z,94.43
2022-12-25T05:22:46.944Z,94.64
2022-12-25T05:23:47.685Z,94.74
2022-12-25T05:24:47.674Z,94.74
2022-12-25T05:25:47.661Z,95.05
2022-12-25T05:26:48.356Z,95.15
2022-12-25T05:27:53.759Z,95.05
2022-12-25T05:28:47.679Z,95.15
2022-12-25T05:29:47.536Z,95.15
2022-12-25T05:30:47.616Z,94.95
2022-12-25T05:31:47.557Z,95.36
2022-12-25T05:32:47.708Z,95.36
2022-12-25T05:33:47.629Z,95.25
2022-12-25T05:34:47.587Z,95.36
2022-12-25T05:35:47.520Z,95.46
2022-12-25T05:36:48.307Z,95.25
2022-12-25T05:37:47.607Z,95.15
2022-12-25T05:38:47.577Z,95.15
2022-12-25T05:39:47.516Z,94.84
2022-12-25T05:40:47.557Z,94.74
2022-12-25T05:41:47.497Z,95.05
2022-12-25T05:42:48.783Z,94.95
2022-12-25T05:43:47.593Z,94.84
2022-12-25T05:44:46.687Z,94.84
2022-12-25T05:45:48.096Z,94.95
2022-12-25T05:46:47.533Z,94.95
2022-12-25T05:47:46.716Z,94.64
2022-12-25T05:48:47.386Z,94.32
2022-12-25T05:49:47.445Z,94.37
2022-12-25T05:50:47.494Z,94.68
2022-12-25T05:51:47.405Z,95.09
2022-12-25T05:52:47.275Z,95.20
2022-12-25T05:53:47.620Z,95.40
2022-12-25T05:54:46.576Z,95.30
2022-12-25T05:55:47.465Z,95.40
2022-12-25T05:56:47.365Z,95.40
2022-12-25T05:57:47.336Z,95.20
2022-12-25T05:58:48.383Z,94.95
2022-12-25T05:59:47.149Z,95.09
2022-12-25T06:00:48.385Z,94.95
2022-12-25T06:01:46.703Z,94.53
2022-12-25T06:02:48.487Z,94.32
2022-12-25T06:03:48.085Z,94.53
2022-12-25T06:04:46.479Z,94.53
2022-12-25T06:05:48.153Z,94.27
2022-12-25T06:06:47.466Z,94.37
2022-12-25T06:07:46.479Z,94.78
2022-12-25T06:08:48.207Z,95.09
2022-12-25T06:09:47.635Z,94.89
2022-12-25T06:10:46.429Z,94.68
2022-12-25T06:11:48.184Z,94.78
2022-12-25T06:12:47.464Z,94.68
2022-12-25T06:13:46.403Z,95.09
2022-12-25T06:14:48.068Z,95.40
2022-12-25T06:15:47.126Z,95.09
2022-12-25T06:16:46.442Z,95.09
2022-12-25T06:17:47.965Z,95.20
2022-12-25T06:18:47.248Z,94.99
2022-12-25T06:19:46.408Z,94.89
2022-12-25T06:20:48.280Z,94.89
2022-12-25T06:21:47.726Z,94.68
2022-12-25T06:22:46.294Z,94.78
2022-12-25T06:23:48.643Z,94.74
2022-12-25T06:24:48.019Z,94.17
2022-12-25T06:25:46.335Z,94.06
2022-12-25T06:26:47.017Z,94.27
2022-12-25T06:27:46.242Z,94.37
2022-12-25T06:28:47.686Z,94.37
2022-12-25T06:29:46.773Z,94.06
2022-12-25T06:30:46.264Z,94.17
2022-12-25T06:31:47.810Z,94.27
2022-12-25T06:32:47.697Z,94.47
2022-12-25T06:33:46.891Z,94.27
2022-12-25T06:34:48.064Z,94.89
2022-12-25T06:35:46.825Z,95.09
2022-12-25T06:36:46.994Z,95.09
2022-12-25T06:37:46.163Z,94.99
2022-12-25T06:38:47.090Z,94.78
2022-12-25T06:39:46.816Z,94.78
2022-12-25T06:40:46.088Z,94.78
2022-12-25T06:41:46.904Z,94.68
2022-12-25T06:42:46.073Z,94.68
2022-12-25T06:43:46.906Z,94.47
2022-12-25T06:44:46.739Z,94.57
2022-12-25T06:45:46.974Z,94.47
2022-12-25T06:46:46.703Z,94.37
2022-12-25T06:47:46.961Z,94.57
2022-12-25T06:48:46.683Z,94.37
2022-12-25T06:49:46.123Z,94.27
2022-12-25T06:50:46.667Z,93.96
2022-12-25T06:51:46.854Z,93.96
2022-12-25T06:52:46.634Z,94.37
2022-12-25T06:53:46.827Z,94.68
2022-12-25T06:54:46.753Z,94.89
2022-12-25T06:55:46.752Z,94.68
2022-12-25T06:56:46.622Z,94.57
2022-12-25T06:57:46.823Z,94.57
2022-12-25T06:58:45.914Z,94.68
2022-12-25T06:59:51.356Z,94.68
2022-12-25T07:00:48.815Z,94.89
2022-12-25T07:01:46.117Z,94.89
2022-12-25T07:02:46.924Z,94.89
2022-12-25T07:03:45.874Z,94.89
2022-12-25T07:04:46.485Z,94.78
2022-12-25T07:05:46.553Z,94.78
2022-12-25T07:06:46.595Z,94.99
2022-12-25T07:07:45.836Z,94.95
2022-12-25T07:08:45.843Z,94.95
2022-12-25T07:09:46.983Z,95.05
2022-12-25T07:10:46.802Z,94.84
2022-12-25T07:11:45.971Z,94.53
2022-12-25T07:12:46.672Z,94.64
2022-12-25T07:13:45.821Z,94.32
2022-12-25T07:14:46.333Z,94.12
2022-12-25T07:15:46.532Z,94.43
2022-12-25T07:16:45.758Z,94.43
2022-12-25T07:17:46.522Z,94.43
2022-12-25T07:18:46.373Z,94.18
2022-12-25T07:19:46.626Z,93.66
2022-12-25T07:20:46.353Z,93.46
2022-12-25T07:21:46.501Z,93.46
2022-12-25T07:22:46.384Z,93.35
2022-12-25T07:23:46.562Z,93.66
2022-12-25T07:24:46.446Z,93.35
2022-12-25T07:25:45.631Z,93.30
2022-12-25T07:26:46.351Z,93.81
2022-12-25T07:27:46.463Z,94.18
2022-12-25T07:28:46.411Z,94.08
2022-12-25T07:29:45.607Z,93.98
2022-12-25T07:30:46.363Z,93.98
2022-12-25T07:31:45.615Z,93.56
2022-12-25T07:32:49.990Z,93.25
2022-12-25T07:33:46.421Z,92.94
2022-12-25T07:34:47.373Z,93.46
2022-12-25T07:35:46.557Z,93.56
2022-12-25T07:36:45.541Z,93.40
2022-12-25T07:37:46.143Z,94.23
2022-12-25T07:38:46.363Z,94.12
2022-12-25T07:39:46.172Z,94.43
2022-12-25T07:40:46.435Z,94.64
2022-12-25T07:41:45.474Z,94.32
2022-12-25T07:42:46.366Z,94.64
2022-12-25T07:43:45.607Z,94.64
2022-12-25T07:44:45.491Z,94.64
2022-12-25T07:45:46.241Z,93.77
2022-12-25T07:46:46.934Z,93.81
2022-12-25T07:47:46.263Z,93.60
2022-12-25T07:48:46.212Z,93.66
2022-12-25T07:49:47.033Z,93.35
2022-12-25T07:50:47.144Z,93.15
2022-12-25T07:51:46.401Z,92.59
2022-12-25T07:52:45.378Z,92.33
2022-12-25T07:53:45.917Z,92.29
2022-12-25T07:54:45.412Z,92.08
2022-12-25T07:55:45.312Z,91.56
2022-12-25T07:56:45.324Z,91.60
2022-12-25T07:57:46.403Z,91.50
2022-12-25T07:58:46.119Z,91.91
2022-12-25T07:59:46.638Z,91.60
2022-12-25T08:00:46.841Z,91.25
2022-12-25T08:01:45.472Z,91.30
2022-12-25T08:02:45.511Z,91.85
2022-12-25T08:03:46.846Z,92.27
2022-12-25T08:04:46.200Z,92.22
2022-12-25T08:05:45.192Z,92.12
2022-12-25T08:06:46.411Z,92.43
2022-12-25T08:07:45.715Z,92.33
2022-12-25T08:08:45.232Z,92.33
2022-12-25T08:09:45.963Z,92.22
2022-12-25T08:10:45.185Z,92.33
2022-12-25T08:11:46.523Z,92.22
2022-12-25T08:12:47.185Z,92.12
2022-12-25T08:13:45.141Z,92.12
2022-12-25T08:14:46.041Z,92.74
2022-12-25T08:15:45.109Z,93.52
2022-12-25T08:16:45.725Z,91.56
2022-12-25T08:17:45.225Z,92.59
2022-12-25T08:18:45.166Z,91.36
2022-12-25T08:19:45.202Z,91.05
2022-12-25T08:20:45.345Z,91.21
2022-12-25T08:21:45.171Z,90.69
2022-12-25T08:22:45.087Z,89.56
2022-12-25T08:23:45.051Z,89.62
2022-12-25T08:24:45.055Z,90.03
2022-12-25T08:25:45.128Z,89.89
2022-12-25T08:26:45.122Z,88.68
2022-12-25T08:27:45.092Z,86.25
2022-12-25T08:28:45.071Z,83.98
2022-12-25T08:29:45.112Z,81.21
2022-12-25T08:30:45.119Z,80.08
2022-12-25T08:31:46.691Z,80.83
2022-12-25T08:32:45.044Z,81.08
2022-12-25T08:33:45.923Z,82.10
2022-12-25T08:34:45.735Z,81.32
2022-12-25T08:35:45.596Z,82.28
2022-12-25T08:36:44.964Z,83.51
2022-12-25T08:37:47.032Z,81.81
2022-12-25T08:38:45.982Z,81.95
2022-12-25T08:39:45.903Z,83.59
2022-12-25T08:40:45.666Z,83.53
2022-12-25T08:41:44.913Z,84.82
2022-12-25T08:42:46.694Z,84.45
2022-12-25T08:43:46.784Z,83.94
2022-12-25T08:44:44.903Z,86.40
2022-12-25T08:45:44.827Z,86.19
2022-12-25T08:46:44.950Z,86.36
2022-12-25T08:47:44.833Z,85.74
2022-12-25T08:48:44.788Z,85.33
2022-12-25T08:49:46.354Z,84.82
2022-12-25T08:50:44.776Z,84.41
2022-12-25T08:51:46.442Z,84.66
2022-12-25T08:52:46.333Z,85.47
2022-12-25T08:53:46.204Z,85.47
2022-12-25T08:54:46.302Z,85.95
2022-12-25T08:55:46.252Z,85.03
2022-12-25T08:56:45.455Z,85.33
2022-12-25T08:57:45.699Z,85.03
2022-12-25T08:58:45.439Z,84.31
2022-12-25T08:59:46.254Z,84.92
2022-12-25T09:00:44.993Z,85.44
2022-12-25T09:01:46.251Z,85.03
2022-12-25T09:02:44.761Z,84.61
2022-12-25T09:03:45.810Z,85.03
2022-12-25T09:04:45.487Z,85.54
2022-12-25T09:05:44.583Z,86.15
2022-12-25T09:06:46.074Z,85.85
2022-12-25T09:07:45.922Z,85.44
2022-12-25T09:08:49.013Z,84.61
2022-12-25T09:09:46.284Z,85.74
2022-12-25T09:10:44.568Z,85.44
2022-12-25T09:11:45.967Z,85.23
2022-12-25T09:12:45.364Z,85.03
2022-12-25T09:13:44.500Z,85.68
2022-12-25T09:14:46.528Z,85.47
2022-12-25T09:15:45.387Z,85.58
2022-12-25T09:16:44.778Z,85.27
2022-12-25T09:17:46.402Z,85.17
2022-12-25T09:18:45.069Z,84.92
2022-12-25T09:19:45.282Z,84.72
2022-12-25T09:20:45.142Z,83.65
2022-12-25T09:21:45.236Z,83.72
2022-12-25T09:22:44.436Z,83.51
2022-12-25T09:23:45.434Z,82.35
2022-12-25T09:24:44.416Z,82.24
2022-12-25T09:25:46.633Z,82.35
2022-12-25T09:26:45.104Z,82.24
2022-12-25T09:27:45.589Z,82.41
2022-12-25T09:28:50.671Z,82.31
2022-12-25T09:29:44.354Z,82.07
2022-12-25T09:30:44.402Z,80.63
2022-12-25T09:31:44.333Z,80.22
2022-12-25T09:32:44.614Z,81.04
2022-12-25T09:33:46.052Z,81.24
2022-12-25T09:34:45.213Z,80.83
2022-12-25T09:35:44.943Z,80.74
2022-12-25T09:36:44.292Z,81.04
2022-12-25T09:37:45.950Z,80.02
2022-12-25T09:38:45.727Z,81.15
2022-12-25T09:39:46.645Z,80.83
2022-12-25T09:40:45.106Z,81.04
2022-12-25T09:41:44.973Z,80.60
2022-12-25T09:42:44.183Z,79.68
2022-12-25T09:43:45.026Z,81.41
2022-12-25T09:44:45.156Z,79.20
2022-12-25T09:45:45.051Z,79.82
2022-12-25T09:46:44.297Z,80.33
2022-12-25T09:47:46.053Z,80.63
2022-12-25T09:48:44.783Z,80.33
2022-12-25T09:49:44.159Z,81.51
2022-12-25T09:50:45.583Z,80.80
2022-12-25T09:51:45.452Z,79.98
2022-12-25T09:52:44.825Z,80.76
2022-12-25T09:53:45.058Z,80.11
2022-12-25T09:54:44.717Z,78.99
2022-12-25T09:55:44.888Z,78.27
2022-12-25T09:56:45.690Z,78.85
2022-12-25T09:57:44.963Z,77.52
2022-12-25T09:58:44.916Z,77.25
2022-12-25T09:59:45.655Z,78.17
2022-12-25T10:00:44.802Z,78.13
2022-12-25T10:01:44.956Z,77.25
2022-12-25T10:02:44.130Z,77.86
2022-12-25T10:03:45.547Z,77.52
2022-12-25T10:04:44.783Z,77.83
2022-12-25T10:05:44.573Z,77.93
2022-12-25T10:06:45.339Z,77.11
2022-12-25T10:07:44.880Z,76.87
2022-12-25T10:08:43.904Z,76.84
2022-12-25T10:09:43.984Z,75.74
2022-12-25T10:10:44.722Z,73.57
2022-12-25T10:11:44.587Z,69.84
2022-12-25T10:12:44.654Z,67.07
2022-12-25T10:13:43.897Z,67.65
2022-12-25T10:14:45.732Z,65.42
2022-12-25T10:15:45.796Z,65.95
2022-12-25T10:16:44.645Z,66.46
2022-12-25T10:17:43.843Z,65.68
2022-12-25T10:18:45.635Z,67.20
2022-12-25T10:19:44.755Z,67.58
2022-12-25T10:20:44.023Z,64.78
2022-12-25T10:21:43.862Z,63.37
2022-12-25T10:22:45.632Z,62.40
2022-12-25T10:23:44.584Z,61.43
2022-12-25T10:24:43.745Z,59.28
2022-12-25T10:25:45.203Z,60.22
2022-12-25T10:26:45.819Z,60.75
2022-12-25T10:27:45.369Z,61.23
2022-12-25T10:28:45.000Z,59.78
2022-12-25T10:29:44.574Z,58.93
2022-12-25T10:30:44.542Z,60.45
2022-12-25T10:31:45.492Z,60.14
2022-12-25T10:32:43.720Z,60.41
2022-12-25T10:33:43.708Z,60.96
2022-12-25T10:34:44.248Z,62.23
2022-12-25T10:35:43.664Z,60.91
2022-12-25T10:36:45.404Z,61.62
2022-12-25T10:37:45.720Z,62.57
2022-12-25T10:38:44.604Z,60.16
2022-12-25T10:39:46.882Z,57.48
2022-12-25T10:40:45.012Z,57.96
2022-12-25T10:41:43.613Z,57.35
2022-12-25T10:42:45.031Z,55.41
2022-12-25T10:43:45.338Z,54.99
2022-12-25T10:44:43.589Z,54.38
2022-12-25T10:45:43.557Z,55.24
2022-12-25T10:46:43.581Z,56.32
2022-12-25T10:47:43.528Z,55.29
2022-12-25T10:48:43.514Z,54.25
2022-12-25T10:49:44.663Z,55.21
2022-12-25T10:50:44.782Z,55.01
2022-12-25T10:51:44.604Z,55.99
2022-12-25T10:52:43.464Z,53.52
2022-12-25T10:53:43.475Z,53.02
2022-12-25T10:54:44.310Z,53.42
2022-12-25T10:55:43.452Z,54.96
2022-12-25T10:56:44.102Z,53.80
2022-12-25T10:57:44.283Z,55.69
2022-12-25T10:58:43.392Z,56.85
2022-12-25T10:59:45.158Z,62.56
2022-12-25T11:00:44.334Z,63.06
2022-12-25T11:01:44.548Z,65.99
2022-12-25T11:02:44.095Z,68.96
2022-12-25T11:03:43.385Z,69.84
2022-12-25T11:04:44.010Z,69.23
2022-12-25T11:05:44.074Z,70.18
2022-12-25T11:06:43.303Z,70.21
2022-12-25T11:07:43.947Z,70.95
2022-12-25T11:08:43.281Z,72.62
2022-12-25T11:09:45.524Z,72.75
2022-12-25T11:10:44.992Z,73.60
2022-12-25T11:11:43.306Z,72.79
2022-12-25T11:12:43.233Z,73.81
2022-12-25T11:13:44.612Z,73.81
2022-12-25T11:14:43.592Z,74.52
2022-12-25T11:15:44.074Z,74.32
2022-12-25T11:16:43.245Z,74.01
2022-12-25T11:17:44.667Z,74.11
2022-12-25T11:18:43.715Z,74.62
2022-12-25T11:19:44.012Z,73.40
2022-12-25T11:20:47.116Z,73.40
2022-12-25T11:21:43.163Z,73.60
2022-12-25T11:22:43.155Z,74.15
2022-12-25T11:23:44.596Z,75.16
2022-12-25T11:24:43.625Z,74.55
2022-12-25T11:25:43.122Z,75.07
2022-12-25T11:26:44.505Z,74.66
2022-12-25T11:27:44.322Z,75.27
2022-12-25T11:28:43.085Z,75.10
2022-12-25T11:29:45.250Z,75.98
2022-12-25T11:30:44.543Z,75.37
2022-12-25T11:31:43.187Z,75.27
2022-12-25T11:32:44.823Z,75.16
2022-12-25T11:33:44.104Z,75.16
2022-12-25T11:34:43.334Z,74.25
2022-12-25T11:35:44.752Z,74.90
2022-12-25T11:36:44.366Z,74.69
2022-12-25T11:37:43.133Z,74.29
2022-12-25T11:38:44.717Z,74.45
2022-12-25T11:39:43.821Z,74.05
2022-12-25T11:40:43.748Z,73.27
2022-12-25T11:41:42.972Z,73.77
2022-12-25T11:42:44.155Z,72.65
2022-12-25T11:43:43.083Z,73.16
2022-12-25T11:44:59.095Z,72.86
2022-12-25T11:45:44.712Z,73.94
2022-12-25T11:46:44.941Z,72.92
2022-12-25T11:47:44.377Z,71.29
2022-12-25T11:48:43.553Z,70.17
2022-12-25T11:49:49.435Z,71.12
2022-12-25T11:50:43.562Z,70.57
2022-12-25T11:51:43.711Z,70.68
2022-12-25T11:52:43.450Z,70.68
2022-12-25T11:53:43.947Z,71.19
2022-12-25T11:54:43.580Z,72.82
2022-12-25T11:55:43.594Z,72.72
2022-12-25T11:56:44.476Z,72.82
2022-12-25T11:57:44.625Z,73.94
2022-12-25T11:58:44.415Z,73.77
2022-12-25T11:59:44.073Z,74.55
2022-12-25T12:00:43.451Z,74.08
2022-12-25T12:01:44.065Z,73.88
2022-12-25T12:02:44.289Z,73.64
2022-12-25T12:03:43.026Z,72.65
2022-12-25T12:04:44.250Z,72.82
2022-12-25T12:05:42.685Z,73.03
2022-12-25T12:06:43.570Z,74.05
2022-12-25T12:07:43.280Z,74.69
2022-12-25T12:08:44.543Z,74.08
2022-12-25T12:09:43.416Z,74.32
2022-12-25T12:10:44.220Z,74.83
2022-12-25T12:11:43.312Z,74.83
2022-12-25T12:12:48.913Z,75.13
2022-12-25T12:13:44.480Z,75.41
2022-12-25T12:14:44.011Z,75.24
2022-12-25T12:15:43.461Z,75.34
2022-12-25T12:16:44.510Z,75.24
2022-12-25T12:17:43.409Z,75.65
2022-12-25T12:18:49.999Z,75.65
2022-12-25T12:19:43.100Z,76.36
2022-12-25T12:20:44.100Z,76.16
2022-12-25T12:21:42.549Z,76.16
2022-12-25T12:22:43.251Z,76.36
2022-12-25T12:23:44.361Z,75.75
2022-12-25T12:24:44.219Z,75.82
2022-12-25T12:25:43.547Z,75.20
2022-12-25T12:26:44.280Z,74.59
2022-12-25T12:27:43.457Z,73.16
2022-12-25T12:28:43.441Z,72.92
2022-12-25T12:29:42.520Z,73.06
2022-12-25T12:30:42.912Z,72.62
2022-12-25T12:31:44.527Z,72.72
2022-12-25T12:32:43.446Z,72.86
2022-12-25T12:33:42.425Z,73.77
2022-12-25T12:34:44.430Z,74.18
2022-12-25T12:35:43.162Z,75.07
2022-12-25T12:36:44.319Z,75.16
2022-12-25T12:37:42.690Z,74.55
2022-12-25T12:38:44.503Z,74.49
2022-12-25T12:39:43.891Z,75.07
2022-12-25T12:40:43.393Z,74.15
2022-12-25T12:41:44.074Z,72.92
2022-12-25T12:42:43.387Z,72.72
2022-12-25T12:43:42.310Z,73.13
2022-12-25T12:44:43.551Z,72.82
2022-12-25T12:45:42.507Z,72.31
2022-12-25T12:46:42.306Z,73.74
2022-12-25T12:47:44.074Z,74.25
2022-12-25T12:48:43.139Z,73.64
2022-12-25T12:49:42.247Z,73.13
2022-12-25T12:50:42.944Z,73.54
2022-12-25T12:51:43.963Z,74.05
2022-12-25T12:52:43.219Z,73.64